createdAt,value
2018-07-16T00:00:23.153Z,9.43
2018-07-16T00:02:51.898Z,10.27
2018-07-16T00:05:20.471Z,9.17
2018-07-16T00:07:49.126Z,9.73
2018-07-16T00:10:17.778Z,9.80
2018-07-16T00:12:46.391Z,9.50
2018-07-16T00:15:15.359Z,9.90
2018-07-16T00:17:44.071Z,10.10
2018-07-16T00:20:12.678Z,9.40
2018-07-16T00:22:41.318Z,9.33
2018-07-16T00:25:09.925Z,9.70
2018-07-16T00:27:38.550Z,9.50
2018-07-16T00:30:07.237Z,9.30
2018-07-16T00:32:35.845Z,8.90
2018-07-16T00:35:04.443Z,8.87
2018-07-16T00:37:33.016Z,9.23
2018-07-16T00:40:01.655Z,8.90
2018-07-16T00:42:30.264Z,8.83
2018-07-16T00:44:58.745Z,9.47
2018-07-16T00:47:27.198Z,9.37
2018-07-16T00:49:55.888Z,9.20
2018-07-16T00:52:24.515Z,9.60
2018-07-16T00:54:53.145Z,9.47
2018-07-16T00:57:21.846Z,9.57
2018-07-16T00:59:50.575Z,9.40
2018-07-16T01:02:19.326Z,9.50
2018-07-16T01:04:47.794Z,10.13
2018-07-16T01:07:16.518Z,10.37
2018-07-16T01:09:45.570Z,10.13
2018-07-16T01:12:14.221Z,10.70
2018-07-16T01:14:42.831Z,9.63
2018-07-16T01:17:11.636Z,10.37
2018-07-16T01:19:40.302Z,10.50
2018-07-16T01:22:09.041Z,10.37
2018-07-16T01:24:37.458Z,10.60
2018-07-16T01:27:06.092Z,10.47
2018-07-16T01:29:36.759Z,10.30
2018-07-16T01:32:05.484Z,10.83
2018-07-16T01:34:34.158Z,10.87
2018-07-16T01:37:02.750Z,11.70
2018-07-16T01:39:31.350Z,11.17
2018-07-16T01:41:59.943Z,10.87
2018-07-16T01:44:28.427Z,11.93
2018-07-16T01:46:57.123Z,11.67
2018-07-16T01:49:25.747Z,12.23
2018-07-16T01:51:54.420Z,12.27
2018-07-16T01:54:23.120Z,12.23
2018-07-16T01:56:51.788Z,11.90
2018-07-16T01:59:20.392Z,12.70
2018-07-16T02:01:48.980Z,11.13
2018-07-16T02:04:17.668Z,11.90
2018-07-16T02:06:46.258Z,10.60
2018-07-16T02:09:14.983Z,12.03
2018-07-16T02:11:43.668Z,11.57
2018-07-16T02:14:12.413Z,11.57
2018-07-16T02:16:41.083Z,11.93
2018-07-16T02:19:09.760Z,11.63
2018-07-16T02:21:38.368Z,11.70
2018-07-16T02:24:06.970Z,10.73
2018-07-16T02:26:35.646Z,9.87
2018-07-16T02:29:04.243Z,10.80
2018-07-16T02:31:32.663Z,10.13
2018-07-16T02:34:01.243Z,10.90
2018-07-16T02:36:29.844Z,10.67
2018-07-16T02:38:58.471Z,10.53
2018-07-16T02:41:27.055Z,10.70
2018-07-16T02:43:55.665Z,10.70
2018-07-16T02:46:24.258Z,11.27
2018-07-16T02:48:52.853Z,11.13
2018-07-16T02:51:21.446Z,11.23
2018-07-16T02:53:50.075Z,11.47
2018-07-16T02:56:18.628Z,11.33
2018-07-16T02:58:47.237Z,10.80
2018-07-16T03:01:15.701Z,10.73
2018-07-16T03:03:44.321Z,10.70
2018-07-16T03:06:13.019Z,9.60
2018-07-16T03:08:41.683Z,9.20
2018-07-16T03:11:10.109Z,9.27
2018-07-16T03:13:38.729Z,8.53
2018-07-16T03:16:07.426Z,8.77
2018-07-16T03:18:35.891Z,9.03
2018-07-16T03:21:04.576Z,8.30
2018-07-16T03:23:33.168Z,8.17
2018-07-16T03:26:01.764Z,8.13
2018-07-16T03:28:30.156Z,8.00
2018-07-16T03:30:58.783Z,7.97
2018-07-16T03:33:27.478Z,8.27
2018-07-16T03:35:56.115Z,7.80
2018-07-16T03:38:24.760Z,8.07
2018-07-16T03:40:53.345Z,8.43
2018-07-16T03:43:21.936Z,7.70
2018-07-16T03:45:50.599Z,8.60
2018-07-16T03:48:19.345Z,8.60
2018-07-16T03:50:47.950Z,8.43
2018-07-16T03:53:16.591Z,8.77
2018-07-16T03:55:45.007Z,8.00
2018-07-16T03:58:13.680Z,8.20
2018-07-16T04:00:42.393Z,8.07
2018-07-16T04:03:11.333Z,8.17
2018-07-16T04:05:39.773Z,7.97
2018-07-16T04:08:08.418Z,8.30
2018-07-16T04:10:37.089Z,8.80
2018-07-16T04:13:05.775Z,8.47
2018-07-16T04:15:34.236Z,8.53
2018-07-16T04:18:06.632Z,8.57
2018-07-16T04:20:35.276Z,9.10
2018-07-16T04:23:03.996Z,8.77
2018-07-16T04:25:32.631Z,9.03
2018-07-16T04:28:01.216Z,8.40
2018-07-16T04:30:29.875Z,8.70
2018-07-16T04:32:59.876Z,8.60
2018-07-16T04:35:28.531Z,9.20
2018-07-16T04:37:57.322Z,9.27
2018-07-16T04:40:25.900Z,9.60
2018-07-16T04:42:54.683Z,9.70
2018-07-16T04:45:23.375Z,9.40
2018-07-16T04:47:51.799Z,9.13
2018-07-16T04:50:20.456Z,8.57
2018-07-16T04:52:49.095Z,8.90
2018-07-16T04:55:17.815Z,8.63
2018-07-16T04:57:46.357Z,8.73
2018-07-16T05:00:15.053Z,8.77
2018-07-16T05:02:43.675Z,8.17
2018-07-16T05:05:12.140Z,8.10
2018-07-16T05:07:40.808Z,8.93
2018-07-16T05:10:09.503Z,8.27
2018-07-16T05:12:38.135Z,8.50
2018-07-16T05:15:06.748Z,8.63
2018-07-16T05:17:35.433Z,8.73
2018-07-16T05:20:04.175Z,9.20
2018-07-16T05:22:32.873Z,8.07
2018-07-16T05:25:01.569Z,8.43
2018-07-16T05:27:30.258Z,8.13
2018-07-16T05:29:58.937Z,8.13
2018-07-16T05:32:27.705Z,8.23
2018-07-16T05:34:56.280Z,8.33
2018-07-16T05:37:24.878Z,8.50
2018-07-16T05:39:53.534Z,7.23
2018-07-16T05:42:21.976Z,8.10
2018-07-16T05:44:50.688Z,8.70
2018-07-16T05:47:19.474Z,8.53
2018-07-16T05:49:48.151Z,8.57
2018-07-16T05:52:16.854Z,8.83
2018-07-16T05:54:45.340Z,8.07
2018-07-16T05:57:13.938Z,9.20
2018-07-16T05:59:42.400Z,8.87
2018-07-16T06:02:11.130Z,8.83
2018-07-16T06:04:39.806Z,8.67
2018-07-16T06:07:08.651Z,8.63
2018-07-16T06:09:37.554Z,7.70
2018-07-16T06:12:06.411Z,7.83
2018-07-16T06:14:35.079Z,7.67
2018-07-16T06:17:03.763Z,8.43
2018-07-16T06:19:32.425Z,7.97
2018-07-16T06:22:01.116Z,8.37
2018-07-16T06:24:29.742Z,7.83
2018-07-16T06:26:58.419Z,8.77
2018-07-16T06:29:27.091Z,8.07
2018-07-16T06:31:55.841Z,8.23
2018-07-16T06:34:24.688Z,9.03
2018-07-16T06:36:53.356Z,8.73
2018-07-16T06:39:22.050Z,8.43
2018-07-16T06:41:50.726Z,8.10
2018-07-16T06:44:19.490Z,8.03
2018-07-16T06:46:48.226Z,8.73
2018-07-16T06:49:16.981Z,7.87
2018-07-16T06:51:45.596Z,7.97
2018-07-16T06:54:14.174Z,7.92
2018-07-16T06:56:42.794Z,8.07
2018-07-16T06:59:11.214Z,7.90
2018-07-16T07:01:39.821Z,8.15
2018-07-16T07:04:08.424Z,7.83
2018-07-16T07:06:37.060Z,7.77
2018-07-16T07:09:06.598Z,8.40
2018-07-16T07:11:40.534Z,7.62
2018-07-16T07:14:09.099Z,8.00
2018-07-16T07:16:37.991Z,7.47
2018-07-16T07:19:06.679Z,7.83
2018-07-16T07:21:35.314Z,7.60
2018-07-16T07:24:04.038Z,7.55
2018-07-16T07:26:33.186Z,7.20
2018-07-16T07:29:01.885Z,6.67
2018-07-16T07:31:31.816Z,6.95
2018-07-16T07:34:00.555Z,7.05
2018-07-16T07:36:29.344Z,7.22
2018-07-16T07:38:57.793Z,7.17
2018-07-16T07:41:26.440Z,6.90
2018-07-16T07:43:55.211Z,6.80
2018-07-16T07:46:23.824Z,7.50
2018-07-16T07:48:52.495Z,6.80
2018-07-16T07:51:21.258Z,6.92
2018-07-16T07:53:49.925Z,7.10
2018-07-16T07:56:18.418Z,6.85
2018-07-16T07:58:47.107Z,6.70
2018-07-16T08:01:15.756Z,6.47
2018-07-16T08:03:45.227Z,7.08
2018-07-16T08:06:13.964Z,6.87
2018-07-16T08:08:42.794Z,7.15
2018-07-16T08:11:11.654Z,7.60
2018-07-16T08:13:40.295Z,7.30
2018-07-16T08:16:08.884Z,6.95
2018-07-16T08:18:38.515Z,6.92
2018-07-16T08:21:07.417Z,7.17
2018-07-16T08:23:36.059Z,7.60
2018-07-16T08:26:04.766Z,6.83
2018-07-16T08:28:33.575Z,7.30
2018-07-16T08:31:02.245Z,7.17
2018-07-16T08:33:31.048Z,7.20
2018-07-16T08:35:59.684Z,7.55
2018-07-16T08:38:28.339Z,7.20
2018-07-16T08:40:56.951Z,7.17
2018-07-16T08:43:25.719Z,7.47
2018-07-16T08:45:54.566Z,7.12
2018-07-16T08:48:23.639Z,7.20
2018-07-16T08:50:52.401Z,6.97
2018-07-16T08:53:21.134Z,7.40
2018-07-16T08:55:49.779Z,7.20
2018-07-16T08:58:18.389Z,7.15
2018-07-16T09:00:47.172Z,6.85
2018-07-16T09:03:15.891Z,7.08
2018-07-16T09:05:44.604Z,6.78
2018-07-16T09:08:13.349Z,6.80
2018-07-16T09:10:42.892Z,6.75
2018-07-16T09:13:11.645Z,6.45
2018-07-16T09:15:40.195Z,7.20
2018-07-16T09:18:08.903Z,7.22
2018-07-16T09:20:37.788Z,7.25
2018-07-16T09:23:06.571Z,7.00
2018-07-16T09:25:35.323Z,7.03
2018-07-16T09:28:03.981Z,7.05
2018-07-16T09:30:32.758Z,7.17
2018-07-16T09:33:01.220Z,6.95
2018-07-16T09:35:29.846Z,7.55
2018-07-16T09:37:58.651Z,7.50
2018-07-16T09:40:27.823Z,7.03
2018-07-16T09:42:57.348Z,7.50
2018-07-16T09:45:26.254Z,7.37
2018-07-16T09:47:55.015Z,7.72
2018-07-16T09:50:23.871Z,7.78
2018-07-16T09:52:52.619Z,8.10
2018-07-16T09:55:21.527Z,7.58
2018-07-16T09:57:50.998Z,7.90
2018-07-16T10:00:24.651Z,7.92
2018-07-16T10:02:53.298Z,8.38
2018-07-16T10:11:41.877Z,8.00
2018-07-16T10:14:10.601Z,8.20
2018-07-16T10:16:39.442Z,7.70
2018-07-16T10:19:13.776Z,7.87
2018-07-16T10:21:42.646Z,7.97
2018-07-16T10:24:12.066Z,8.35
2018-07-16T10:26:40.988Z,8.05
2018-07-16T10:29:09.811Z,8.40
2018-07-16T10:31:38.389Z,8.60
2018-07-16T10:34:06.831Z,8.93
2018-07-16T10:36:35.561Z,7.50
2018-07-16T10:39:05.383Z,7.78
2018-07-16T10:41:34.111Z,8.90
2018-07-16T10:44:03.091Z,7.97
2018-07-16T10:46:31.866Z,8.30
2018-07-16T10:49:00.549Z,8.75
2018-07-16T10:51:29.257Z,8.83
2018-07-16T10:53:57.911Z,8.73
2018-07-16T10:56:27.246Z,9.10
2018-07-16T10:58:56.007Z,8.95
2018-07-16T11:01:24.876Z,9.95
2018-07-16T11:03:53.647Z,9.23
2018-07-16T11:06:22.908Z,9.23
2018-07-16T11:08:53.517Z,8.95
2018-07-16T11:11:22.667Z,9.20
2018-07-16T11:13:51.504Z,10.15
2018-07-16T11:16:20.398Z,9.43
2018-07-16T11:18:49.205Z,9.78
2018-07-16T11:21:24.075Z,10.15
2018-07-16T11:23:52.836Z,9.45
2018-07-16T11:26:21.667Z,9.98
2018-07-16T11:28:50.498Z,9.28
2018-07-16T11:31:19.258Z,9.63
2018-07-16T11:33:48.684Z,10.15
2018-07-16T11:36:17.439Z,9.03
2018-07-16T11:38:46.182Z,9.43
2018-07-16T11:41:14.936Z,9.80
2018-07-16T11:43:43.773Z,9.13
2018-07-16T11:46:12.866Z,9.73
2018-07-16T11:48:41.799Z,10.13
2018-07-16T11:51:10.573Z,9.28
2018-07-16T11:53:39.296Z,8.73
2018-07-16T11:56:08.093Z,8.65
2018-07-16T11:58:37.012Z,9.15
2018-07-16T12:01:05.916Z,9.05
2018-07-16T12:03:39.106Z,8.98
2018-07-16T12:06:13.591Z,10.08
2018-07-16T12:08:43.286Z,10.40
2018-07-16T12:11:12.657Z,9.60
2018-07-16T12:13:41.520Z,9.05
2018-07-16T12:16:10.256Z,8.78
2018-07-16T12:18:38.934Z,8.78
2018-07-16T12:21:07.951Z,9.28
2018-07-16T12:23:37.018Z,9.55
2018-07-16T12:26:06.280Z,9.00
2018-07-16T12:28:35.841Z,9.78
2018-07-16T12:31:04.631Z,9.33
2018-07-16T12:33:33.526Z,8.23
2018-07-16T12:38:57.158Z,8.95
2018-07-16T12:44:19.179Z,9.85
2018-07-16T12:46:48.075Z,8.40
2018-07-16T12:49:17.873Z,7.80
2018-07-16T12:51:46.992Z,8.35
2018-07-16T12:54:16.512Z,7.62
2018-07-16T12:56:50.651Z,7.92
2018-07-16T12:59:19.303Z,7.80
2018-07-16T13:01:48.069Z,7.83
2018-07-16T13:04:18.048Z,7.70
2018-07-16T13:06:47.098Z,7.50
2018-07-16T13:09:15.711Z,6.28
2018-07-16T13:11:44.521Z,7.62
2018-07-16T13:14:13.338Z,7.05
2018-07-16T13:16:42.282Z,7.40
2018-07-16T13:19:13.360Z,7.20
2018-07-16T13:21:42.152Z,6.58
2018-07-16T13:24:10.856Z,6.20
2018-07-16T13:26:39.848Z,5.78
2018-07-16T13:29:08.809Z,6.58
2018-07-16T13:31:37.531Z,5.67
2018-07-16T13:34:06.271Z,6.62
2018-07-16T13:36:34.963Z,6.15
2018-07-16T13:39:04.655Z,6.15
2018-07-16T13:41:34.585Z,7.10
2018-07-16T13:44:03.469Z,7.05
2018-07-16T13:46:33.449Z,6.78
2018-07-16T13:49:02.236Z,7.72
2018-07-16T13:51:31.406Z,7.10
2018-07-16T13:54:00.605Z,7.53
2018-07-16T13:56:29.433Z,6.80
2018-07-16T13:58:58.258Z,7.70
2018-07-16T14:01:50.173Z,8.50
2018-07-16T14:04:18.884Z,8.60
2018-07-16T14:06:53.983Z,9.20
2018-07-16T14:09:22.791Z,7.97
2018-07-16T14:11:51.715Z,8.80
2018-07-16T14:14:20.550Z,9.08
2018-07-16T14:19:50.474Z,7.87
2018-07-16T14:22:19.327Z,9.05
2018-07-16T14:24:48.477Z,9.65
2018-07-16T14:27:17.246Z,9.65
2018-07-16T14:29:46.062Z,9.25
2018-07-16T14:35:21.042Z,8.63
2018-07-16T14:46:44.145Z,8.55
2018-07-16T14:49:12.886Z,8.90
2018-07-16T14:51:41.828Z,8.35
2018-07-16T14:54:12.416Z,9.15
2018-07-16T14:56:41.216Z,8.75
2018-07-16T14:59:10.222Z,8.28
2018-07-16T15:01:50.414Z,8.13
2018-07-16T15:04:19.339Z,8.48
2018-07-16T15:06:48.478Z,8.73
2018-07-16T15:09:26.297Z,8.43
2018-07-16T15:11:56.207Z,8.80
2018-07-16T15:14:26.528Z,8.60
2018-07-16T15:16:55.454Z,8.18
2018-07-16T15:19:36.882Z,8.63
2018-07-16T15:22:05.727Z,7.70
2018-07-16T15:24:34.608Z,7.83
2018-07-16T15:27:03.485Z,8.13
2018-07-16T15:29:32.167Z,8.18
2018-07-16T15:32:02.136Z,7.97
2018-07-16T15:34:30.923Z,7.70
2018-07-16T15:36:59.703Z,8.25
2018-07-16T15:39:28.431Z,7.65
2018-07-16T15:41:58.111Z,8.68
2018-07-16T15:44:26.830Z,7.03
2018-07-16T15:47:01.456Z,7.72
2018-07-16T15:49:30.567Z,7.95
2018-07-16T15:52:03.328Z,8.08
2018-07-16T15:54:32.657Z,7.80
2018-07-16T15:57:01.239Z,7.33
2018-07-16T15:59:30.217Z,7.22
2018-07-16T16:02:04.977Z,6.62
2018-07-16T16:13:33.321Z,6.62
2018-07-16T16:16:02.747Z,5.62
2018-07-16T16:18:31.579Z,5.87
2018-07-16T16:21:00.804Z,4.87
2018-07-16T16:23:29.565Z,4.90
2018-07-16T16:25:58.250Z,4.95
2018-07-16T16:28:30.018Z,5.30
2018-07-16T16:30:58.885Z,5.30
2018-07-16T16:33:29.295Z,5.58
2018-07-16T16:35:58.102Z,5.28
2018-07-16T16:38:26.807Z,5.10
2018-07-16T16:40:55.960Z,5.15
2018-07-16T16:43:24.791Z,5.05
2018-07-16T16:46:22.540Z,5.37
2018-07-16T16:48:51.248Z,4.80
2018-07-16T16:51:20.311Z,4.90
2018-07-16T16:53:50.084Z,5.20
2018-07-16T16:56:18.926Z,5.05
2018-07-16T16:58:47.627Z,5.67
2018-07-16T17:01:44.944Z,5.05
2018-07-16T17:04:45.305Z,4.78
2018-07-16T17:07:25.823Z,5.08
2018-07-16T17:09:54.715Z,5.08
2018-07-16T17:12:23.607Z,5.00
2018-07-16T17:14:52.268Z,5.03
2018-07-16T17:17:21.008Z,5.15
2018-07-16T17:19:49.573Z,4.92
2018-07-16T17:22:18.325Z,5.70
2018-07-16T17:24:46.943Z,5.10
2018-07-16T17:27:15.693Z,5.22
2018-07-16T17:29:44.378Z,4.78
2018-07-16T17:32:13.016Z,4.47
2018-07-16T17:34:41.803Z,4.70
2018-07-16T17:37:10.455Z,4.70
2018-07-16T17:39:39.386Z,4.37
2018-07-16T17:42:08.067Z,4.60
2018-07-16T17:44:36.878Z,5.25
2018-07-16T17:47:05.556Z,4.30
2018-07-16T17:49:34.010Z,5.50
2018-07-16T17:52:02.599Z,5.05
2018-07-16T17:54:31.342Z,5.20
2018-07-16T17:57:00.975Z,4.67
2018-07-16T17:59:29.633Z,5.23
2018-07-16T18:01:58.368Z,4.87
2018-07-16T18:04:27.138Z,5.07
2018-07-16T18:06:55.739Z,5.53
2018-07-16T18:09:24.516Z,4.83
2018-07-16T18:11:53.206Z,5.47
2018-07-16T18:14:21.921Z,4.70
2018-07-16T18:16:50.573Z,5.58
2018-07-16T18:19:19.278Z,4.97
2018-07-16T18:21:47.819Z,5.17
2018-07-16T18:24:16.817Z,5.87
2018-07-16T18:26:45.498Z,4.97
2018-07-16T18:29:14.418Z,4.77
2018-07-16T18:31:43.128Z,5.93
2018-07-16T18:34:11.810Z,5.42
2018-07-16T18:36:40.479Z,6.10
2018-07-16T18:39:09.731Z,6.20
2018-07-16T18:41:38.403Z,5.60
2018-07-16T18:44:07.126Z,5.90
2018-07-16T18:46:35.759Z,6.12
2018-07-16T18:49:04.590Z,5.53
2018-07-16T18:51:33.328Z,6.12
2018-07-16T18:54:01.943Z,6.87
2018-07-16T18:56:30.731Z,6.63
2018-07-16T18:58:59.595Z,6.80
2018-07-16T19:01:28.322Z,6.33
2018-07-16T19:03:57.024Z,6.57
2018-07-16T19:06:25.964Z,6.63
2018-07-16T19:08:54.658Z,7.10
2018-07-16T19:11:23.413Z,6.33
2018-07-16T19:13:52.178Z,6.60
2018-07-16T19:16:21.015Z,6.45
2018-07-16T19:18:49.830Z,6.57
2018-07-16T19:21:18.485Z,6.65
2018-07-16T19:23:47.458Z,6.10
2018-07-16T19:26:17.781Z,6.37
2018-07-16T19:28:46.577Z,7.53
2018-07-16T19:31:16.526Z,6.83
2018-07-16T19:33:45.418Z,3.80
2018-07-16T19:36:14.335Z,3.70
2018-07-16T19:38:43.375Z,2.37
2018-07-16T19:41:12.060Z,2.90
2018-07-16T19:43:41.636Z,3.60
2018-07-16T19:46:10.509Z,3.43
2018-07-16T19:48:39.247Z,4.13
2018-07-16T19:51:08.305Z,5.00
2018-07-16T19:53:37.181Z,4.93
2018-07-16T19:56:06.009Z,5.47
2018-07-16T19:58:35.254Z,4.70
2018-07-16T20:01:03.932Z,5.17
2018-07-16T20:03:39.776Z,4.40
2018-07-16T20:06:17.959Z,4.20
2018-07-16T20:08:48.443Z,4.90
2018-07-16T20:11:18.267Z,4.90
2018-07-16T20:13:47.172Z,4.87
2018-07-16T20:16:15.876Z,5.33
2018-07-16T20:18:44.391Z,5.23
2018-07-16T20:21:13.262Z,5.47
2018-07-16T20:23:42.078Z,5.73
2018-07-16T20:26:11.539Z,8.07
2018-07-16T20:28:41.167Z,9.80
2018-07-16T20:31:09.892Z,10.00
2018-07-16T20:33:38.940Z,9.10
2018-07-16T20:36:07.961Z,9.27
2018-07-16T20:38:36.993Z,9.93
2018-07-16T20:41:06.354Z,8.50
2018-07-16T20:43:35.804Z,8.10
2018-07-16T20:46:05.824Z,6.50
2018-07-16T20:48:34.497Z,8.17
2018-07-16T20:51:03.965Z,7.83
2018-07-16T20:53:32.943Z,7.57
2018-07-16T20:56:01.766Z,8.83
2018-07-16T20:58:31.204Z,8.53
2018-07-16T21:01:00.741Z,8.50
2018-07-16T21:03:29.630Z,8.30
2018-07-16T21:05:59.659Z,8.93
2018-07-16T21:08:28.756Z,9.07
2018-07-16T21:10:58.039Z,8.53
2018-07-16T21:13:27.298Z,8.90
2018-07-16T21:15:56.773Z,8.73
2018-07-16T21:18:26.068Z,9.23
2018-07-16T21:20:54.929Z,9.70
2018-07-16T21:23:23.700Z,9.20
2018-07-16T21:25:52.485Z,8.97
2018-07-16T21:28:21.266Z,8.17
2018-07-16T21:30:50.367Z,7.80
2018-07-16T21:33:19.146Z,7.20
2018-07-16T21:35:48.188Z,6.17
2018-07-16T21:38:16.923Z,6.93
2018-07-16T21:40:45.564Z,6.13
2018-07-16T21:43:14.230Z,6.17
2018-07-16T21:45:43.018Z,6.00
2018-07-16T21:48:11.775Z,6.47
2018-07-16T21:50:40.334Z,6.10
2018-07-16T21:53:09.490Z,5.77
2018-07-16T21:55:38.510Z,5.63
2018-07-16T21:58:08.956Z,5.60
2018-07-16T22:00:38.833Z,4.93
2018-07-16T22:03:11.658Z,5.47
2018-07-16T22:05:41.141Z,5.77
2018-07-16T22:08:10.651Z,5.37
2018-07-16T22:10:39.528Z,5.83
2018-07-16T22:13:08.413Z,5.60
2018-07-16T22:15:37.280Z,5.33
2018-07-16T22:18:06.588Z,5.87
2018-07-16T22:20:35.355Z,5.87
2018-07-16T22:23:04.297Z,5.33
2018-07-16T22:25:33.122Z,5.27
2018-07-16T22:28:01.910Z,5.23
2018-07-16T22:30:30.745Z,5.90
2018-07-16T22:32:59.539Z,6.13
2018-07-16T22:35:28.350Z,6.73
2018-07-16T22:37:57.595Z,7.13
2018-07-16T22:40:26.478Z,6.70
2018-07-16T22:42:55.299Z,7.13
2018-07-16T22:45:24.098Z,7.37
2018-07-16T22:47:53.285Z,7.00
2018-07-16T22:50:22.038Z,7.37
2018-07-16T22:52:50.700Z,6.90
2018-07-16T22:55:20.757Z,7.00
2018-07-16T22:57:49.463Z,7.00
2018-07-16T23:00:18.172Z,7.23
2018-07-16T23:02:46.891Z,6.50
2018-07-16T23:05:15.607Z,6.47
2018-07-16T23:07:44.337Z,6.80
2018-07-16T23:10:13.098Z,6.83
2018-07-16T23:12:41.818Z,7.50
2018-07-16T23:15:10.557Z,6.17
2018-07-16T23:17:39.222Z,6.50
2018-07-16T23:20:08.063Z,6.53
2018-07-16T23:22:54.563Z,8.07
2018-07-16T23:25:23.320Z,7.20
2018-07-16T23:27:52.915Z,6.97
2018-07-16T23:30:21.613Z,7.03
2018-07-16T23:32:50.292Z,11.00
2018-07-16T23:35:18.982Z,8.50
2018-07-16T23:37:47.712Z,8.30
2018-07-16T23:40:16.410Z,6.30
2018-07-16T23:42:44.883Z,5.80
2018-07-16T23:45:14.011Z,5.03
2018-07-16T23:47:42.692Z,5.13
2018-07-16T23:50:11.376Z,4.00
2018-07-16T23:52:40.699Z,5.57
2018-07-16T23:55:09.343Z,4.17
2018-07-16T23:57:37.810Z,4.57
